D/T METAR WX W/DIR W/SPE G/SPE TEMP DEWP
16/01/19 02:50 EGXE 160250Z AUTO 21015KT 9999 FEW034/// BKN039/// BKN210/// 09/05 Q1002 SSW (210°) 17.3mph 9°C 5°C
16/01/19 01:50 EGXE 160150Z AUTO 22015KT 9999 FEW022/// BKN035/// 09/06 Q1003 SW (220°) 17.3mph 9°C 6°C
16/01/19 00:50 EGXE 160050Z AUTO 22016KT 9999 FEW021/// BKN035/// 09/06 Q1003 SW (220°) 18.4mph 9°C 6°C
15/01/19 23:50 EGXE 152350Z AUTO 23007KT 9999 SCT019/// BKN028/// 09/06 Q1005 SW (230°) 8.1mph 9°C 6°C
15/01/19 22:50 EGXE 152250Z AUTO 23016KT 9999 BKN032/// BKN180/// 09/06 Q1005 SW (230°) 18.4mph 9°C 6°C
15/01/19 21:50 EGXE 152150Z AUTO 22012KT 9999 BKN031/// SCT220/// 09/05 Q1006 SW (220°) 13.8mph 9°C 5°C
15/01/19 20:50 EGXE 152050Z AUTO 19008KT 9999 SCT023/// BKN027/// 09/05 Q1007 S (190°) 9.2mph 9°C 5°C
15/01/19 19:50 EGXE 151950Z AUTO 21008KT 9999 BKN021/// 09/05 Q1008 SSW (210°) 9.2mph 9°C 5°C
15/01/19 18:50 EGXE 151850Z AUTO 22014KT 9999 BKN025/// SCT032/// BKN200/// 09/04 Q1009 SW (220°) 16.1mph 9°C 4°C
15/01/19 17:50 EGXE 151750Z AUTO 23014KT 9999 FEW035/// BKN200/// 08/04 Q1009 SW (230°) 16.1mph 8°C 4°C
15/01/19 16:50 EGXE 151650Z 22010KT 9999 FEW030 BKN180 09/03 Q1010 BLU SW (220°) 11.5mph 9°C 3°C
15/01/19 15:50 EGXE 151550Z 25013KT 9999 FEW030 BKN190 09/04 Q1010 BLU TEMPO 26018G28KT BLU WSW (250°) 15.0mph 9°C 4°C
15/01/19 14:50 EGXE 151450Z 26014KT 9999 SCT030 SCT190 10/03 Q1011 BLU TEMPO 26018G28KT BLU W (260°) 16.1mph 10°C 3°C
15/01/19 13:50 EGXE 151350Z 26017KT 9999 FEW025 SCT038 BKN220 10/04 Q1011 BLU TEMPO 28018G28KT BLU W (260°) 19.6mph 10°C 4°C
15/01/19 12:50 EGXE 151250Z 22007KT 9999 FEW026 SCT045 BKN150 10/05 Q1012 BLU TEMPO 26015G25KT BLU SW (220°) 8.1mph 10°C 5°C
15/01/19 11:50 EGXE 151150Z 26008KT 9999 BKN025 11/06 Q1013 BLU TEMPO 28018G28KT BLU W (260°) 9.2mph 11°C 6°C
15/01/19 10:50 EGXE 151050Z 26011KT 9999 SCT025 SCT250 11/06 Q1013 BLU TEMPO 28018G28KT BLU W (260°) 12.7mph 11°C 6°C
15/01/19 09:50 EGXE 150950Z 23012KT 9999 SCT023 BKN170 10/06 Q1014 WHT TEMPO 25017G27KT SCT025 BLU SW (230°) 13.8mph 10°C 6°C
15/01/19 08:50 EGXE 150850Z 22011KT 9999 FEW022 BKN150 09/06 Q1014 BLU TEMPO 25017G27KT SCT022 WHT SW (220°) 12.7mph 9°C 6°C
15/01/19 07:50 EGXE 150750Z 24011KT 9999 FEW025 BKN120 09/06 Q1014 BLU TEMPO 26017G27KT SCT024 WHT WSW (240°) 12.7mph 9°C 6°C
15/01/19 06:50 EGXE 150650Z 25017KT 9999 FEW040 BKN120 09/05 Q1013 BLU WSW (250°) 19.6mph 9°C 5°C
15/01/19 05:50 EGXE 150550Z 19005KT 9999 BKN021 BKN180 09/05 Q1014 WHT S (190°) 5.8mph 9°C 5°C
15/01/19 04:50 EGXE 150450Z AUTO 24010KT 9999 FEW023/// 08/05 Q1014 WSW (240°) 11.5mph 8°C 5°C
15/01/19 03:50 EGXE 150350Z AUTO 24009KT 9999 BKN021/// BKN029/// 09/05 Q1015 RERA WSW (240°) 10.4mph 9°C 5°C
15/01/19 02:50 EGXE 150250Z AUTO 21005KT 9999 BKN020/// 08/05 Q1016 SSW (210°) 5.8mph 8°C 5°C
15/01/19 01:50 EGXE 150150Z AUTO 23008KT 9999 BKN020/// BKN027/// 09/06 Q1016 SW (230°) 9.2mph 9°C 6°C
15/01/19 00:50 EGXE 150050Z AUTO 25011KT 9999 BKN021/// 08/06 Q1016 WSW (250°) 12.7mph 8°C 6°C
14/01/19 23:50 EGXE 142350Z AUTO 23011KT 9999 FEW025/// 08/05 Q1017 SW (230°) 12.7mph 8°C 5°C
14/01/19 22:50 EGXE 142250Z AUTO 25013KT 9999 FEW050/// 07/05 Q1017 WSW (250°) 15.0mph 7°C 5°C
14/01/19 21:50 EGXE 142150Z AUTO 23010KT 9999 FEW034/// BKN050/// 07/04 Q1018 SW (230°) 11.5mph 7°C 4°C
14/01/19 20:50 EGXE 142050Z AUTO 24009KT 9999 BKN023/// BKN030/// 07/04 Q1018 WSW (240°) 10.4mph 7°C 4°C
14/01/19 19:50 EGXE 141950Z AUTO 23010KT 9999 FEW039/// BKN060/// 05/03 Q1019 SW (230°) 11.5mph 5°C 3°C
14/01/19 18:50 EGXE 141850Z AUTO 21006KT 9999 SCT040/// SCT080/// 05/02 Q1019 SSW (210°) 6.9mph 5°C 2°C
14/01/19 17:50 EGXE 141750Z AUTO 24007KT 9999 NCD 03/01 Q1019 WSW (240°) 8.1mph 3°C 1°C
14/01/19 16:50 EGXE 141650Z 24005KT 9999 FEW028 SCT045 05/02 Q1019 BLU NOSIG WSW (240°) 5.8mph 5°C 2°C
14/01/19 15:50 EGXE 141550Z 25006KT 9999 FEW028 BKN044 BKN250 06/02 Q1019 BLU NOSIG WSW (250°) 6.9mph 6°C 2°C
14/01/19 14:50 EGXE 141450Z 18003KT 9999 FEW028 BKN045 07/04 Q1019 BLU NOSIG S (180°) 3.5mph 7°C 4°C
14/01/19 13:50 EGXE 141350Z 07002KT 9999 -SHRA SCT025 SCT036 07/04 Q1019 BLU NOSIG -SHRA ENE (70°) 2.3mph 7°C 4°C
14/01/19 12:50 EGXE 141250Z 17003KT 9999 SCT030 SCT050 07/04 Q1020 BLU NOSIG S (170°) 3.5mph 7°C 4°C
14/01/19 11:50 EGXE 141150Z 02004KT 9999 FEW024 SCT040 BKN200 06/04 Q1019 BLU TEMPO SCT024 WHT NNE (20°) 4.6mph 6°C 4°C
14/01/19 10:50 EGXE 141050Z 34005KT 9999 SCT024 SCT035 BKN050 06/03 Q1019 WHT TEMPO SCT025 BLU NNW (340°) 5.8mph 6°C 3°C
14/01/19 09:50 EGXE 140950Z 33004KT 9999 SCT023 BKN030 BKN140 06/03 Q1019 WHT TEMPO SCT025 BLU NNW (330°) 4.6mph 6°C 3°C
14/01/19 08:50 EGXE 140850Z 33003KT 9999 BKN031 BKN140 04/02 Q1018 BLU TEMPO SCT018 WHT NNW (330°) 3.5mph 4°C 2°C
14/01/19 07:50 EGXE 140750Z 29003KT 9999 BKN036 05/02 Q1017 BLU TEMPO SCT018 WHT WNW (290°) 3.5mph 5°C 2°C
14/01/19 06:50 EGXE 140650Z 33003KT 9999 BKN036 05/02 Q1016 BLU NNW (330°) 3.5mph 5°C 2°C
14/01/19 05:50 EGXE 140550Z AUTO 29009KT 9999 FEW040/// BKN170/// BKN210/// 06/02 Q1016 WNW (290°) 10.4mph 6°C 2°C
14/01/19 04:50 EGXE 140450Z AUTO 30012KT 9999 BKN170/// 06/02 Q1015 WNW (300°) 13.8mph 6°C 2°C
14/01/19 03:50 EGXE 140350Z AUTO 27008KT 9999 SCT180/// 05/01 Q1015 W (270°) 9.2mph 5°C 1°C
14/01/19 02:50 EGXE 140250Z AUTO 29014KT 9999 NCD 06/02 Q1014 WNW (290°) 16.1mph 6°C 2°C
14/01/19 01:50 EGXE 140150Z AUTO 29012KT 9999 NCD 06/02 Q1013 WNW (290°) 13.8mph 6°C 2°C
14/01/19 00:50 EGXE 140050Z AUTO 29012KT 9999 NCD 07/03 Q1012 WNW (290°) 13.8mph 7°C 3°C
13/01/19 23:50 EGXE 132350Z AUTO 29015KT 9999 NCD 07/03 Q1011 WNW (290°) 17.3mph 7°C 3°C
13/01/19 22:50 EGXE 132250Z AUTO 29012KT 9999 NCD 07/03 Q1010 WNW (290°) 13.8mph 7°C 3°C
13/01/19 21:50 EGXE 132150Z AUTO 29017KT 9999 NCD 07/03 Q1010 WNW (290°) 19.6mph 7°C 3°C
13/01/19 20:50 EGXE 132050Z AUTO 29013KT 9999 NCD 07/02 Q1009 WNW (290°) 15.0mph 7°C 2°C
13/01/19 19:50 EGXE 131950Z AUTO 29013KT 9999 FEW038/// SCT045/// 08/03 Q1008 WNW (290°) 15.0mph 8°C 3°C
13/01/19 18:50 EGXE 131850Z AUTO 29018G28KT 9999 BKN039/// 08/03 Q1008 WNW (290°) 20.7mph 32.2mph 8°C 3°C
13/01/19 17:50 EGXE 131750Z AUTO 29018G29KT 9999 BKN034/// 09/03 Q1007 WNW (290°) 20.7mph 33.4mph 9°C 3°C
13/01/19 16:50 EGXE 131650Z AUTO 29020G31KT 9999 SCT039/// 09/02 Q1007 WNW (290°) 23.0mph 35.7mph 9°C 2°C
13/01/19 15:50 EGXE 131550Z AUTO 29014KT 9999 SCT036/// SCT045/// 09/03 Q1007 WNW (290°) 16.1mph 9°C 3°C
13/01/19 14:50 EGXE 131450Z AUTO 28024G39KT 9999 NCD 10/03 Q1005 W (280°) 27.6mph 44.9mph 10°C 3°C
13/01/19 13:50 EGXE 131350Z AUTO 29029G40KT 9999 FEW050/// 11/03 Q1006 WNW (290°) 33.4mph 46.0mph 11°C 3°C
13/01/19 12:50 EGXE 131250Z AUTO 29020G31KT 9999 SCT042/// BKN220/// 11/06 Q1006 WNW (290°) 23.0mph 35.7mph 11°C 6°C
13/01/19 11:50 EGXE 131150Z AUTO 29026G38KT 9999 FEW030/// 12/05 Q1005 WNW (290°) 29.9mph 43.7mph 12°C 5°C
13/01/19 10:50 EGXE 131050Z AUTO 27016KT 9999 FEW032/// 11/07 Q1006 W (270°) 18.4mph 11°C 7°C
13/01/19 09:50 EGXE 130950Z AUTO 27016KT 9999 BKN028/// 11/07 Q1007 W (270°) 18.4mph 11°C 7°C
13/01/19 08:50 EGXE 130850Z AUTO 27019KT 8000 HZ BKN027/// BKN033/// 10/07 Q1008 HZ W (270°) 21.9mph 10°C 7°C
13/01/19 07:50 EGXE 130750Z AUTO 27013G24KT 9999 BKN025/// 10/07 Q1008 W (270°) 15.0mph 27.6mph 10°C 7°C
13/01/19 06:50 EGXE 130650Z AUTO 27015KT 9999 FEW027/// BKN170/// 10/07 Q1008 W (270°) 17.3mph 10°C 7°C
13/01/19 05:50 EGXE 130550Z AUTO 26020KT 9999 FEW020/// BKN160/// 10/07 Q1009 W (260°) 23.0mph 10°C 7°C
13/01/19 04:50 EGXE 130450Z AUTO 28013G27KT 9999 FEW020/// SCT032/// BKN150/// 10/07 Q1010 W (280°) 15.0mph 31.1mph 10°C 7°C
13/01/19 03:50 EGXE 130350Z AUTO 25019KT 9999 FEW020/// BKN130/// 10/07 Q1010 WSW (250°) 21.9mph 10°C 7°C
13/01/19 02:50 EGXE 130250Z AUTO 28017KT 9999 OVC140/// 10/07 Q1011 W (280°) 19.6mph 10°C 7°C
13/01/19 01:50 EGXE 130150Z AUTO 27018G35KT 9999 FEW019/// OVC120/// 11/07 Q1011 W (270°) 20.7mph 40.3mph 11°C 7°C
13/01/19 00:50 EGXE 130050Z AUTO 27016KT 9999 BKN110/// BKN160/// 11/07 Q1011 W (270°) 18.4mph 11°C 7°C
12/01/19 23:50 EGXE 122350Z AUTO 27016KT 9999 SCT090/// BKN130/// 11/08 Q1012 W (270°) 18.4mph 11°C 8°C
12/01/19 22:50 EGXE 122250Z AUTO 27019KT 9999 FEW028/// BKN070/// 11/08 Q1013 W (270°) 21.9mph 11°C 8°C
12/01/19 21:50 EGXE 122150Z AUTO 27014KT 9999 BKN024/// SCT070/// BKN120/// 11/08 Q1013 W (270°) 16.1mph 11°C 8°C
12/01/19 20:50 EGXE 122050Z AUTO 26015KT 9999 FEW024/// BKN110/// 11/08 Q1013 W (260°) 17.3mph 11°C 8°C
12/01/19 19:50 EGXE 121950Z AUTO 27013KT 9999 FEW050/// OVC070/// 11/08 Q1013 RERA W (270°) 15.0mph 11°C 8°C
12/01/19 18:50 EGXE 121850Z AUTO 28012KT 9999 -RA OVC060/// 10/08 Q1014 -RA W (280°) 13.8mph 10°C 8°C
12/01/19 17:50 EGXE 121750Z AUTO 27010KT 9999 SCT026/// BKN070/// 10/07 Q1014 W (270°) 11.5mph 10°C 7°C
12/01/19 16:50 EGXE 121650Z AUTO 28012G23KT 9999 BKN070/// 09/06 Q1014 W (280°) 13.8mph 26.5mph 9°C 6°C
12/01/19 15:50 EGXE 121550Z AUTO 27017G27KT 9999 BKN048/// 09/06 Q1014 W (270°) 19.6mph 31.1mph 9°C 6°C
12/01/19 14:50 EGXE 121450Z AUTO 26013G23KT 9999 BKN060/// 09/06 Q1015 W (260°) 15.0mph 26.5mph 9°C 6°C
12/01/19 13:50 EGXE 121350Z AUTO 27014KT 9999 FEW030/// BKN070/// 10/06 Q1015 W (270°) 16.1mph 10°C 6°C
12/01/19 12:50 EGXE 121250Z AUTO 26016G26KT 9999 OVC070/// 09/05 Q1016 W (260°) 18.4mph 29.9mph 9°C 5°C
12/01/19 11:50 EGXE 121150Z AUTO 26012KT 9999 BKN070/// 09/05 Q1017 W (260°) 13.8mph 9°C 5°C
12/01/19 10:50 EGXE 121050Z AUTO 27013KT 9999 BKN070/// 09/05 Q1018 W (270°) 15.0mph 9°C 5°C
12/01/19 09:50 EGXE 120950Z AUTO 26009KT 9999 BKN100/// 09/05 Q1018 W (260°) 10.4mph 9°C 5°C
12/01/19 08:50 EGXE 120850Z AUTO 27009KT 9999 BKN130/// SCT170/// 08/05 Q1018 W (270°) 10.4mph 8°C 5°C
12/01/19 07:50 EGXE 120750Z AUTO 28013KT 9999 FEW140/// SCT170/// BKN210/// 09/05 Q1018 RERA W (280°) 15.0mph 9°C 5°C
12/01/19 06:50 EGXE 120650Z AUTO 26009KT 9999 -RADZ FEW028/// BKN032/// 09/06 Q1018 -RA -DZ W (260°) 10.4mph 9°C 6°C
12/01/19 05:50 EGXE 120550Z AUTO 27007KT 9999 FEW048/// BKN190/// 09/07 Q1018 RERA W (270°) 8.1mph 9°C 7°C
12/01/19 04:50 EGXE 120450Z AUTO 25009KT 9999 -RADZ FEW019/// BKN033/// 09/07 Q1018 -RA -DZ WSW (250°) 10.4mph 9°C 7°C
12/01/19 03:50 EGXE 120350Z AUTO 23010KT 9999 BKN018/// BKN037/// 09/06 Q1019 SW (230°) 11.5mph 9°C 6°C
12/01/19 02:50 EGXE 120250Z AUTO 23010KT 9999 BKN019/// 09/06 Q1021 SW (230°) 11.5mph 9°C 6°C
12/01/19 01:50 EGXE 120150Z AUTO 24009KT 9999 BKN021/// BKN070/// 09/06 Q1022 WSW (240°) 10.4mph 9°C 6°C
12/01/19 00:50 EGXE 120050Z AUTO 25010KT 9999 SCT021/// 09/06 Q1022 WSW (250°) 11.5mph 9°C 6°C
11/01/19 23:50 EGXE 112350Z AUTO 26015KT 9999 SCT021/// BKN230/// 09/06 Q1023 W (260°) 17.3mph 9°C 6°C
11/01/19 22:50 EGXE 112250Z AUTO 24004KT 9999 BKN021/// BKN033/// 08/05 Q1024 WSW (240°) 4.6mph 8°C 5°C
11/01/19 21:50 EGXE 112150Z AUTO 22004KT 9999 OVC034/// 08/05 Q1025 SW (220°) 4.6mph 8°C 5°C
11/01/19 20:50 EGXE 112050Z AUTO 24005KT 9999 OVC034/// 08/05 Q1026 WSW (240°) 5.8mph 8°C 5°C
11/01/19 19:50 EGXE 111950Z AUTO 22002KT 9999 OVC031/// 07/04 Q1027 SW (220°) 2.3mph 7°C 4°C
11/01/19 18:50 EGXE 111850Z AUTO 21005KT 9999 OVC033/// 07/04 Q1027 SSW (210°) 5.8mph 7°C 4°C
11/01/19 17:50 EGXE 111750Z AUTO 22003KT 9999 OVC033/// 07/04 Q1028 SW (220°) 3.5mph 7°C 4°C
11/01/19 16:50 EGXE 111650Z AUTO 26005KT 9999 OVC033/// 07/04 Q1028 W (260°) 5.8mph 7°C 4°C
11/01/19 15:50 EGXE 111550Z 24002KT 9999 BKN032 07/04 Q1028 BLU NOSIG WSW (240°) 2.3mph 7°C 4°C
11/01/19 14:50 EGXE 111450Z 30005KT 9999 BKN030 08/04 Q1029 BLU NOSIG WNW (300°) 5.8mph 8°C 4°C
11/01/19 13:50 EGXE 111350Z 29006KT 9999 FEW021 BKN025 08/05 Q1029 BLU NOSIG WNW (290°) 6.9mph 8°C 5°C
11/01/19 12:50 EGXE 111250Z 29010KT 9999 FEW028 BKN033 08/04 Q1029 BLU NOSIG WNW (290°) 11.5mph 8°C 4°C
11/01/19 11:50 EGXE 111150Z 27008KT 9999 BKN033 08/05 Q1030 BLU NOSIG W (270°) 9.2mph 8°C 5°C
11/01/19 10:50 EGXE 111050Z 27009KT 9999 BKN030 07/05 Q1030 BLU NOSIG W (270°) 10.4mph 7°C 5°C
11/01/19 09:50 EGXE 110950Z 28006KT 9999 BKN034 07/04 Q1030 BLU NOSIG W (280°) 6.9mph 7°C 4°C
11/01/19 08:50 EGXE 110850Z 29005KT 9999 BKN035 06/04 Q1030 BLU NOSIG WNW (290°) 5.8mph 6°C 4°C
11/01/19 07:50 EGXE 110750Z 29006KT 9999 BKN037 06/04 Q1030 BLU NOSIG WNW (290°) 6.9mph 6°C 4°C
11/01/19 06:50 EGXE 110650Z 27008KT CAVOK 04/02 Q1029 BLU W (270°) 9.2mph 4°C 2°C
11/01/19 05:50 EGXE 110550Z AUTO 27008KT 9999 BKN210/// 05/03 Q1029 W (270°) 9.2mph 5°C 3°C
11/01/19 04:50 EGXE 110450Z AUTO 28011KT 9999 FEW048/// SCT210/// 05/03 Q1029 W (280°) 12.7mph 5°C 3°C
11/01/19 03:50 EGXE 110350Z AUTO 26006KT 9999 OVC049/// 06/03 Q1029 W (260°) 6.9mph 6°C 3°C
11/01/19 02:50 EGXE 110250Z AUTO 32002KT 9999 OVC050/// 04/03 Q1030 NW (320°) 2.3mph 4°C 3°C
11/01/19 01:50 EGXE 110150Z AUTO 30002KT 9999 OVC048/// 05/03 Q1029 WNW (300°) 2.3mph 5°C 3°C
11/01/19 00:50 EGXE 110050Z AUTO 26003KT 9999 OVC048/// 06/04 Q1029 W (260°) 3.5mph 6°C 4°C
10/01/19 23:50 EGXE 102350Z AUTO 33002KT 9999 OVC050/// 07/04 Q1030 NNW (330°) 2.3mph 7°C 4°C
10/01/19 22:50 EGXE 102250Z AUTO 30006KT 9999 OVC050/// 07/04 Q1030 WNW (300°) 6.9mph 7°C 4°C
10/01/19 21:50 EGXE 102150Z AUTO 30005KT 9999 OVC050/// 07/04 Q1030 WNW (300°) 5.8mph 7°C 4°C
10/01/19 20:50 EGXE 102050Z AUTO 26002KT 9999 OVC050/// 07/04 Q1029 W (260°) 2.3mph 7°C 4°C
10/01/19 19:50 EGXE 101950Z AUTO 30008KT 9999 OVC050/// 08/04 Q1029 WNW (300°) 9.2mph 8°C 4°C
10/01/19 18:50 EGXE 101850Z AUTO 28006KT 9999 OVC047/// 08/05 Q1029 W (280°) 6.9mph 8°C 5°C
10/01/19 17:50 EGXE 101750Z AUTO 27007KT 9999 OVC046/// 08/04 Q1029 W (270°) 8.1mph 8°C 4°C
10/01/19 16:50 EGXE 101650Z 24003KT 9999 FEW044 BKN050 08/05 Q1029 BLU NOSIG WSW (240°) 3.5mph 8°C 5°C
10/01/19 15:50 EGXE 101550Z 26003KT 9999 FEW045 BKN050 08/05 Q1029 BLU NOSIG W (260°) 3.5mph 8°C 5°C
10/01/19 14:50 EGXE 101450Z 30006KT 9999 FEW020 BKN050 09/06 Q1028 BLU NOSIG WNW (300°) 6.9mph 9°C 6°C
10/01/19 13:50 EGXE 101350Z 31004KT CAVOK 08/07 Q1028 BLU NOSIG NW (310°) 4.6mph 8°C 7°C
10/01/19 12:50 EGXE 101250Z 16001KT CAVOK 06/05 Q1029 BLU NOSIG SSE (160°) 1.2mph 6°C 5°C
10/01/19 11:50 EGXE 101150Z 12001KT CAVOK 05/04 Q1029 BLU NOSIG ESE (120°) 1.2mph 5°C 4°C
10/01/19 10:50 EGXE 101050Z 12003KT 9999 FEW020 BKN050 04/03 Q1029 BLU TEMPO SCT020 WHT ESE (120°) 3.5mph 4°C 3°C
10/01/19 10:25 EGXE 101025Z 12002KT 9999 FEW014 BKN050 03/03 Q1029 BLU TEMPO SCT020 WHT ESE (120°) 2.3mph 3°C 3°C
10/01/19 09:50 EGXE 100950Z 15004KT 9999 4000NE SCT013 BKN020 03/02 Q1030 GRN TEMPO 9999 NSW SCT020 WHT SSE (150°) 4.6mph 3°C 2°C
10/01/19 09:27 EGXE 100927Z 16002KT 4000 -DZ OVC012 03/01 Q1030 GRN NOSIG -DZ SSE (160°) 2.3mph 3°C 1°C
10/01/19 09:21 EGXE 100921Z 16002KT 5000 -DZ BKN014 OVC020 03/01 Q1030 GRN NOSIG -DZ SSE (160°) 2.3mph 3°C 1°C
10/01/19 07:50 EGXE 100750Z 10002KT 9999 SCT017 SCT030 BKN050 03/01 Q1029 WHT TEMPO 7000 -RADZ SCT014 GRN E (100°) 2.3mph 3°C 1°C
10/01/19 06:50 EGXE 100650Z 34003KT 9999 BKN047 01/01 Q1029 BLU NNW (340°) 3.5mph 1°C 1°C
10/01/19 05:50 EGXE 100550Z AUTO 08001KT 9999 BKN045/// M00/M01 Q1029 E (80°) 1.2mph 0°C -1°C